Mahshahr Airport

OIAM · Khuzestan, 伊朗

罗盘
风向 的 风向 220° Mahshahr Airport 13/31
风: 6 kt, 2 beaufort

1 kt

6 kt
改变
0 ft 1.000 2.000 3.000 4.000 5.000
CAVOK
METAR OIAM 241200Z 22006KT CAVOK 34/15 Q1002

METAR Mahshahr Airport - OIAM/MRX

Mahshahr Airport是,伊朗中的中型机场。 该机场位于纬度30,55620和经度49,15190。 该机场有一条跑道: 13/31. 本场的ICAO机场代码为OIAM。 该机场的IATA代码为MRX。 机场在Tehran FIR中。

该航空气象观测是针对Mahshahr Airport在2024年4月24日 15:30, 当地时间进行的。

机场观察

风向为220°,速度为6 kt。

天气为CAVOK。这意味着在5.000 ft或MSA(最低安全高度)以下(以较高者为准)以下没有云。这也意味着没有观测到积雨云或高耸的积云,可见度为10 km 或者更多或更高。此外,不会有雾,降雨或其他重要天气。

温度和风寒是34 °C。 露点为15 °C,相对湿度为32%。 海平面上的气压为1002 hPa (QNH)。

白天

今天,太阳从05:35升起,在18:47降落。 这适用于Mahshahr Airport,世界夏令时可能有所不同。 当地时间与世界标准时间之间的时差为+3 小时 30 分钟。 夏令时目前正在进行中。

公司介绍

我们没有关于这个机场的公司信息。

体会

到Vliegles.nl去找飞行课程,跳伞和其他飞行体验。 浏览页面,了解Mahshahr Airport附近所有可用的活动。 你也可以使用搜索功能来寻找你所在地附近的特定飞行课程、跳伞或其他飞行体验。

跑道

Id 标题 侧风 逆风 侧风 %
13/31 137°-317° 6 kt 99 %

逆风成分最大的方向会被突出显示,并用于横风计算。 这并不一定意味着这个方向在使用。

温度 & 天气

温度 34 °C
露点 15 °C
相对湿度 32%
Kp-index 0 (0-9)

白天

日出
05:35
中午
12:11
日落
18:47 (2:14)

小工具

你想在你的网站上有一个关于Mahshahr Airport的当前航空天气(METAR)的小部件吗?

显示HTML代码
报告变更